createdAt,value
2022-10-18T00:01:35.291Z,6.63
2022-10-18T00:04:01.678Z,7.27
2022-10-18T00:06:28.050Z,7.17
2022-10-18T00:08:54.541Z,7.10
2022-10-18T00:11:20.927Z,6.03
2022-10-18T00:13:47.379Z,7.10
2022-10-18T00:16:16.508Z,6.87
2022-10-18T00:18:43.829Z,6.90
2022-10-18T00:21:22.017Z,6.60
2022-10-18T00:23:50.107Z,7.20
2022-10-18T00:26:24.640Z,6.53
2022-10-18T00:28:56.889Z,7.30
2022-10-18T00:31:29.106Z,6.20
2022-10-18T00:34:04.469Z,6.87
2022-10-18T00:36:32.772Z,7.33
2022-10-18T00:38:59.168Z,7.20
2022-10-18T00:41:28.832Z,7.00
2022-10-18T00:43:55.250Z,7.00
2022-10-18T00:46:22.610Z,7.47
2022-10-18T00:48:49.911Z,7.10
2022-10-18T00:51:18.439Z,7.13
2022-10-18T00:53:45.587Z,7.10
2022-10-18T00:56:13.314Z,6.87
2022-10-18T00:58:40.115Z,7.80
2022-10-18T01:01:06.524Z,7.10
2022-10-18T01:03:33.009Z,7.60
2022-10-18T01:05:59.448Z,6.47
2022-10-18T01:09:14.673Z,7.23
2022-10-18T01:12:06.121Z,6.70
2022-10-18T01:14:49.760Z,7.37
2022-10-18T01:17:25.382Z,8.23
2022-10-18T01:20:16.195Z,7.00
2022-10-18T01:22:49.636Z,6.53
2022-10-18T01:25:53.463Z,6.77
2022-10-18T01:28:41.054Z,7.10
2022-10-18T01:31:26.296Z,6.87
2022-10-18T01:33:59.292Z,7.57
2022-10-18T01:36:27.961Z,7.20
2022-10-18T01:38:59.082Z,8.03
2022-10-18T01:41:27.558Z,7.47
2022-10-18T01:43:59.599Z,6.97
2022-10-18T01:46:27.933Z,7.93
2022-10-18T01:48:56.122Z,6.70
2022-10-18T01:51:27.744Z,7.33
2022-10-18T01:53:54.382Z,7.87
2022-10-18T01:56:28.721Z,8.13
2022-10-18T01:59:13.841Z,7.73
2022-10-18T02:01:53.583Z,7.63
2022-10-18T02:04:30.036Z,8.00
2022-10-18T02:07:06.193Z,7.93
2022-10-18T02:09:41.975Z,8.20
2022-10-18T02:12:12.147Z,8.30
2022-10-18T02:14:41.314Z,8.03
2022-10-18T02:17:11.612Z,9.07
2022-10-18T02:19:42.904Z,8.60
2022-10-18T02:22:12.033Z,8.10
2022-10-18T02:24:44.607Z,7.80
2022-10-18T02:27:11.342Z,8.10
2022-10-18T02:29:39.307Z,7.53
2022-10-18T02:32:16.282Z,8.27
2022-10-18T02:35:02.904Z,9.43
2022-10-18T02:37:35.110Z,8.63
2022-10-18T02:40:02.798Z,9.63
2022-10-18T02:42:37.564Z,8.63
2022-10-18T02:45:06.085Z,8.40
2022-10-18T02:47:32.754Z,8.40
2022-10-18T02:49:59.306Z,7.43
2022-10-18T02:52:25.765Z,7.60
2022-10-18T02:54:52.152Z,7.57
2022-10-18T02:57:18.595Z,7.50
2022-10-18T02:59:45.035Z,8.07
2022-10-18T03:02:11.418Z,6.87
2022-10-18T03:04:37.830Z,7.60
2022-10-18T03:07:04.234Z,6.83
2022-10-18T03:09:30.748Z,7.30
2022-10-18T03:11:57.406Z,7.50
2022-10-18T03:14:23.815Z,7.50
2022-10-18T03:16:50.203Z,7.33
2022-10-18T03:19:16.707Z,6.97
2022-10-18T03:21:43.101Z,6.60
2022-10-18T03:24:09.478Z,6.23
2022-10-18T03:26:35.906Z,6.17
2022-10-18T03:29:02.353Z,5.67
2022-10-18T03:31:28.817Z,6.50
2022-10-18T03:33:55.212Z,6.17
2022-10-18T03:36:21.650Z,6.33
2022-10-18T03:38:48.098Z,6.20
2022-10-18T03:41:14.665Z,6.07
2022-10-18T03:43:41.053Z,5.90
2022-10-18T03:46:07.797Z,5.73
2022-10-18T03:48:34.255Z,5.97
2022-10-18T03:51:00.662Z,5.80
2022-10-18T03:53:27.115Z,6.10
2022-10-18T03:55:55.271Z,6.43
2022-10-18T03:58:22.414Z,6.97
2022-10-18T04:00:50.574Z,7.97
2022-10-18T04:03:17.065Z,7.10
2022-10-18T04:05:44.061Z,7.90
2022-10-18T04:08:10.429Z,8.57
2022-10-18T04:10:38.694Z,8.93
2022-10-18T04:13:06.396Z,8.40
2022-10-18T04:15:32.892Z,7.47
2022-10-18T04:17:59.660Z,6.83
2022-10-18T04:20:26.829Z,6.43
2022-10-18T04:22:55.125Z,6.43
2022-10-18T04:25:22.196Z,7.27
2022-10-18T04:27:48.629Z,6.30
2022-10-18T04:30:15.548Z,6.97
2022-10-18T04:32:41.986Z,7.87
2022-10-18T04:35:10.113Z,6.97
2022-10-18T04:37:36.534Z,5.27
2022-10-18T04:40:03.498Z,5.27
2022-10-18T04:42:29.965Z,6.37
2022-10-18T04:44:56.334Z,6.20
2022-10-18T04:47:22.717Z,5.90
2022-10-18T04:49:49.314Z,4.97
2022-10-18T04:52:15.702Z,4.50
2022-10-18T04:54:42.357Z,4.90
2022-10-18T04:57:08.805Z,3.90
2022-10-18T04:59:35.178Z,4.07
2022-10-18T05:02:01.635Z,3.90
2022-10-18T05:04:28.065Z,3.80
2022-10-18T05:06:54.451Z,3.90
2022-10-18T05:09:24.470Z,4.80
2022-10-18T05:11:51.362Z,4.77
2022-10-18T05:14:17.764Z,4.97
2022-10-18T05:16:44.170Z,5.13
2022-10-18T05:19:10.938Z,5.37
2022-10-18T05:21:37.972Z,5.20
2022-10-18T05:24:04.581Z,5.23
2022-10-18T05:26:31.005Z,6.10
2022-10-18T05:28:57.429Z,6.50
2022-10-18T05:31:23.837Z,5.50
2022-10-18T05:33:50.234Z,5.47
2022-10-18T05:36:16.683Z,4.70
2022-10-18T05:38:43.965Z,4.90
2022-10-18T05:41:10.497Z,4.60
2022-10-18T05:43:37.196Z,5.00
2022-10-18T05:46:06.477Z,4.70
2022-10-18T05:48:35.228Z,4.40
2022-10-18T05:51:01.876Z,5.33
2022-10-18T05:53:36.828Z,4.50
2022-10-18T05:56:04.737Z,5.10
2022-10-18T05:58:31.142Z,4.20
2022-10-18T06:01:04.875Z,3.90
2022-10-18T06:03:31.828Z,4.47
2022-10-18T06:06:03.128Z,4.23
2022-10-18T06:08:29.541Z,4.40
2022-10-18T06:10:56.476Z,3.80
2022-10-18T06:13:23.028Z,3.70
2022-10-18T06:15:49.653Z,4.10
2022-10-18T06:18:16.131Z,3.67
2022-10-18T06:20:42.521Z,3.27
2022-10-18T06:23:08.940Z,3.63
2022-10-18T06:25:35.429Z,3.20
2022-10-18T06:28:06.009Z,3.10
2022-10-18T06:30:34.852Z,3.57
2022-10-18T06:33:01.322Z,3.57
2022-10-18T06:35:30.554Z,3.60
2022-10-18T06:37:59.305Z,3.53
2022-10-18T06:40:25.775Z,2.90
2022-10-18T06:43:00.113Z,5.03
2022-10-18T06:45:31.056Z,4.23
2022-10-18T06:47:58.526Z,5.00
2022-10-18T06:50:27.395Z,6.83
2022-10-18T06:52:58.631Z,7.60
2022-10-18T06:55:25.839Z,7.23
2022-10-18T06:57:55.674Z,7.50
2022-10-18T07:00:22.649Z,7.27
2022-10-18T07:02:56.972Z,7.10
2022-10-18T07:05:24.910Z,7.73
2022-10-18T07:07:54.259Z,7.10
2022-10-18T07:10:23.530Z,6.77
2022-10-18T07:12:51.538Z,7.17
2022-10-18T07:15:18.096Z,6.60
2022-10-18T07:17:47.821Z,6.80
2022-10-18T07:20:16.281Z,6.90
2022-10-18T07:22:42.686Z,7.30
2022-10-18T07:25:09.346Z,6.90
2022-10-18T07:27:39.570Z,7.93
2022-10-18T07:30:08.518Z,6.43
2022-10-18T07:32:39.501Z,7.37
2022-10-18T07:35:06.435Z,5.90
2022-10-18T07:37:33.106Z,6.17
2022-10-18T07:39:59.641Z,6.77
2022-10-18T07:42:26.019Z,7.27
2022-10-18T07:44:52.406Z,6.90
2022-10-18T07:47:18.883Z,7.23
2022-10-18T07:49:45.256Z,6.40
2022-10-18T07:52:11.693Z,8.60
2022-10-18T07:54:38.241Z,7.90
2022-10-18T07:57:05.109Z,6.90
2022-10-18T07:59:31.533Z,6.83
2022-10-18T08:01:58.017Z,6.90
2022-10-18T08:04:24.474Z,5.87
2022-10-18T08:06:50.908Z,6.20
2022-10-18T08:09:17.335Z,6.87
2022-10-18T08:11:44.336Z,6.60
2022-10-18T08:14:10.715Z,6.43
2022-10-18T08:16:37.115Z,5.93
2022-10-18T08:19:04.275Z,7.83
2022-10-18T08:21:30.685Z,7.47
2022-10-18T08:23:57.080Z,7.93
2022-10-18T08:26:23.969Z,8.30
2022-10-18T08:29:03.558Z,7.57
2022-10-18T08:31:36.568Z,6.90
2022-10-18T08:34:02.982Z,8.30
2022-10-18T08:36:29.435Z,6.53
2022-10-18T08:38:55.795Z,6.60
2022-10-18T08:41:37.513Z,6.97
2022-10-18T08:44:19.230Z,6.37
2022-10-18T08:46:48.997Z,6.17
2022-10-18T08:49:26.532Z,5.50
2022-10-18T08:51:53.775Z,7.93
2022-10-18T08:54:34.862Z,5.73
2022-10-18T08:57:04.320Z,5.80
2022-10-18T08:59:39.347Z,5.10
2022-10-18T09:02:12.932Z,6.43
2022-10-18T09:05:22.622Z,7.13
2022-10-18T09:08:13.741Z,7.30
2022-10-18T09:11:08.124Z,6.47
2022-10-18T09:14:13.904Z,6.87
2022-10-18T09:16:40.541Z,4.93
2022-10-18T09:19:39.349Z,5.30
2022-10-18T09:22:13.931Z,6.00
2022-10-18T09:24:45.941Z,5.97
2022-10-18T09:27:16.987Z,6.53
2022-10-18T09:29:55.496Z,7.20
2022-10-18T09:32:45.522Z,7.33
2022-10-18T09:35:19.596Z,6.03
2022-10-18T09:37:46.670Z,6.20
2022-10-18T09:40:24.269Z,5.10
2022-10-18T09:42:57.204Z,4.10
2022-10-18T09:45:29.135Z,3.20
2022-10-18T09:48:05.579Z,4.23
2022-10-18T09:51:04.878Z,4.60
2022-10-18T09:53:38.548Z,4.00
2022-10-18T09:56:09.353Z,3.70
2022-10-18T09:58:47.138Z,3.43
2022-10-18T10:01:17.901Z,3.43
2022-10-18T10:03:44.587Z,4.30
2022-10-18T10:06:16.586Z,4.00
2022-10-18T10:08:47.611Z,3.80
2022-10-18T10:11:31.875Z,3.40
2022-10-18T10:14:08.389Z,3.60
2022-10-18T10:16:50.410Z,3.40
2022-10-18T10:19:22.644Z,3.80
2022-10-18T10:21:52.114Z,3.40
2022-10-18T10:24:28.833Z,3.30
2022-10-18T10:27:03.037Z,3.40
2022-10-18T10:29:47.887Z,4.00
2022-10-18T10:32:17.079Z,4.20
2022-10-18T10:34:44.873Z,4.80
2022-10-18T10:37:23.585Z,4.60
2022-10-18T10:40:20.291Z,4.47
2022-10-18T10:43:33.062Z,3.93
2022-10-18T10:46:06.416Z,3.70
2022-10-18T10:48:40.461Z,3.77
2022-10-18T10:51:11.073Z,4.47
2022-10-18T10:53:40.265Z,5.17
2022-10-18T10:56:16.177Z,5.23
2022-10-18T10:58:42.959Z,5.87
2022-10-18T11:01:30.896Z,3.93
2022-10-18T11:04:09.428Z,4.00
2022-10-18T11:06:51.107Z,4.17
2022-10-18T11:09:44.097Z,4.33
2022-10-18T11:12:25.445Z,4.03
2022-10-18T11:15:10.567Z,5.10
2022-10-18T11:18:16.925Z,4.60
2022-10-18T11:20:49.391Z,3.90
2022-10-18T11:23:17.378Z,4.03
2022-10-18T11:26:08.573Z,4.87
2022-10-18T11:28:56.529Z,3.80
2022-10-18T11:32:11.986Z,4.00
2022-10-18T11:35:12.848Z,4.67
2022-10-18T11:37:48.157Z,4.00
2022-10-18T11:40:26.396Z,3.97
2022-10-18T11:43:16.494Z,3.60
2022-10-18T11:45:52.714Z,4.73
2022-10-18T11:48:55.726Z,5.80
2022-10-18T11:51:56.065Z,6.30
2022-10-18T11:54:37.664Z,6.57
2022-10-18T11:57:32.045Z,6.73
2022-10-18T12:00:49.452Z,6.87
2022-10-18T12:03:50.467Z,7.47
2022-10-18T12:06:22.065Z,7.80
2022-10-18T12:08:56.682Z,8.20
2022-10-18T12:11:55.973Z,9.20
2022-10-18T12:14:33.324Z,8.17
2022-10-18T12:17:39.734Z,8.73
2022-10-18T12:19:55.764Z,9.03
2022-10-18T12:22:41.585Z,9.07
2022-10-18T12:25:13.869Z,8.10
2022-10-18T12:27:48.476Z,9.07
2022-10-18T12:30:30.226Z,8.90
2022-10-18T12:33:28.402Z,8.67
2022-10-18T12:36:15.428Z,9.23
2022-10-18T12:38:45.700Z,8.30
2022-10-18T12:41:21.296Z,10.30
2022-10-18T12:44:18.769Z,10.00
2022-10-18T12:46:53.514Z,8.70
2022-10-18T12:49:34.248Z,10.00
2022-10-18T12:52:05.803Z,9.93
2022-10-18T12:54:38.243Z,9.20
2022-10-18T12:57:17.830Z,9.50
2022-10-18T12:59:44.318Z,11.00
2022-10-18T13:02:20.926Z,10.93
2022-10-18T13:04:48.752Z,11.03
2022-10-18T13:07:21.599Z,11.57
2022-10-18T13:10:09.482Z,12.77
2022-10-18T13:12:49.488Z,12.10
2022-10-18T13:15:40.713Z,10.53
2022-10-18T13:18:24.937Z,11.93
2022-10-18T13:21:10.219Z,10.87
2022-10-18T13:23:57.815Z,11.37
2022-10-18T13:26:42.057Z,12.10
2022-10-18T13:29:20.615Z,11.27
2022-10-18T13:32:27.568Z,10.80
2022-10-18T13:34:54.361Z,11.13
2022-10-18T13:37:24.680Z,9.40
2022-10-18T13:40:12.750Z,9.63
2022-10-18T13:42:39.137Z,10.10
2022-10-18T13:45:40.731Z,9.97
2022-10-18T13:48:44.953Z,11.50
2022-10-18T13:51:36.045Z,9.87
2022-10-18T13:54:15.270Z,11.17
2022-10-18T13:57:07.851Z,10.83
2022-10-18T13:59:55.643Z,10.03
2022-10-18T14:03:00.868Z,11.40
2022-10-18T14:05:58.155Z,11.70
2022-10-18T14:08:28.826Z,11.40
2022-10-18T14:11:18.552Z,11.57
2022-10-18T14:13:54.846Z,10.30
2022-10-18T14:16:35.209Z,10.93
2022-10-18T14:19:13.532Z,12.60
2022-10-18T14:21:49.244Z,11.50
2022-10-18T14:24:21.217Z,9.40
2022-10-18T14:26:47.796Z,13.33
2022-10-18T14:29:20.272Z,13.97
2022-10-18T14:31:54.795Z,13.70
2022-10-18T14:34:21.846Z,14.00
2022-10-18T14:36:49.484Z,12.10
2022-10-18T14:39:26.601Z,12.47
2022-10-18T14:41:55.169Z,10.20
2022-10-18T14:44:27.977Z,11.17
2022-10-18T14:47:02.592Z,13.27
2022-10-18T14:49:29.956Z,16.40
2022-10-18T14:51:59.016Z,17.83
2022-10-18T14:54:31.958Z,16.53
2022-10-18T14:57:00.639Z,18.10
2022-10-18T14:59:29.525Z,16.87
2022-10-18T15:02:01.973Z,17.43
2022-10-18T15:04:35.502Z,17.47
2022-10-18T15:07:05.451Z,17.50
2022-10-18T15:09:34.152Z,16.53
2022-10-18T15:12:03.374Z,17.40
2022-10-18T15:14:30.345Z,15.93
2022-10-18T15:17:03.293Z,15.60
2022-10-18T15:19:35.774Z,16.83
2022-10-18T15:25:06.121Z,16.40
2022-10-18T15:27:36.517Z,16.20
2022-10-18T15:30:21.744Z,17.87
2022-10-18T15:33:02.575Z,15.20
2022-10-18T15:35:31.605Z,16.47
2022-10-18T15:38:03.466Z,16.43
2022-10-18T15:40:34.003Z,16.63
2022-10-18T15:43:04.080Z,17.37
2022-10-18T15:45:34.366Z,17.93
2022-10-18T15:48:00.797Z,16.80
2022-10-18T15:50:48.980Z,16.70
2022-10-18T15:53:21.647Z,16.83
2022-10-18T15:56:00.651Z,16.40
2022-10-18T15:58:37.620Z,17.40
2022-10-18T16:01:04.559Z,17.03
2022-10-18T16:03:35.281Z,17.80
2022-10-18T16:06:07.819Z,17.87
2022-10-18T16:08:40.924Z,16.00
2022-10-18T16:11:26.265Z,16.87
2022-10-18T16:13:56.444Z,18.70
2022-10-18T16:16:28.951Z,18.90
2022-10-18T16:18:56.359Z,17.40
2022-10-18T16:21:36.093Z,17.03
2022-10-18T16:24:02.865Z,18.17
2022-10-18T16:26:29.607Z,18.33
2022-10-18T16:28:57.940Z,22.80
2022-10-18T16:31:29.887Z,23.93
2022-10-18T16:33:57.579Z,23.80
2022-10-18T16:36:26.820Z,21.77
2022-10-18T16:38:54.985Z,21.50
2022-10-18T16:41:22.015Z,20.50
2022-10-18T16:43:50.037Z,23.57
2022-10-18T16:46:19.043Z,23.83
2022-10-18T16:48:46.852Z,23.30
2022-10-18T16:51:13.612Z,24.53
2022-10-18T16:53:40.357Z,24.17
2022-10-18T16:56:13.691Z,25.60
2022-10-18T16:58:40.183Z,27.30
2022-10-18T17:01:08.877Z,25.17
2022-10-18T17:03:35.591Z,25.90
2022-10-18T17:06:02.034Z,23.80
2022-10-18T17:08:28.745Z,26.53
2022-10-18T17:10:57.274Z,25.77
2022-10-18T17:13:25.710Z,24.67
2022-10-18T17:15:53.626Z,26.93
2022-10-18T17:18:22.929Z,26.40
2022-10-18T17:20:49.824Z,26.50
2022-10-18T17:23:16.324Z,26.93
2022-10-18T17:25:58.938Z,28.17
2022-10-18T17:28:33.611Z,25.57
2022-10-18T17:31:00.153Z,27.77
2022-10-18T17:33:26.605Z,31.80
2022-10-18T17:35:52.988Z,27.40
2022-10-18T17:38:19.339Z,27.43
2022-10-18T17:40:45.713Z,26.03
2022-10-18T17:43:13.589Z,25.70
2022-10-18T17:45:51.017Z,23.30
2022-10-18T17:48:17.803Z,24.87
2022-10-18T17:50:44.193Z,24.37
2022-10-18T17:53:11.969Z,24.37
2022-10-18T17:55:39.010Z,24.23
2022-10-18T17:58:05.541Z,25.17
2022-10-18T18:00:32.122Z,25.23
2022-10-18T18:03:01.735Z,25.50
2022-10-18T18:05:32.901Z,25.20
2022-10-18T18:08:03.566Z,25.00
2022-10-18T18:10:32.947Z,25.87
2022-10-18T18:12:59.580Z,24.07
2022-10-18T18:15:25.991Z,25.97
2022-10-18T18:17:56.977Z,23.40
2022-10-18T18:20:24.536Z,26.30
2022-10-18T18:22:51.783Z,24.23
2022-10-18T18:25:18.385Z,26.03
2022-10-18T18:27:44.801Z,23.13
2022-10-18T18:30:11.481Z,22.97
2022-10-18T18:32:37.909Z,23.77
2022-10-18T18:35:04.583Z,23.93
2022-10-18T18:37:31.035Z,22.67
2022-10-18T18:39:57.439Z,24.27
2022-10-18T18:42:23.945Z,23.47
2022-10-18T18:44:50.338Z,24.77
2022-10-18T18:49:48.091Z,23.53
2022-10-18T18:52:14.554Z,24.90
2022-10-18T18:54:40.963Z,24.20
2022-10-18T18:57:07.365Z,22.33
2022-10-18T18:59:34.066Z,23.77
2022-10-18T19:02:00.496Z,23.97
2022-10-18T19:04:28.932Z,23.07
2022-10-18T19:06:55.334Z,23.20
2022-10-18T19:09:22.763Z,24.43
2022-10-18T19:11:52.857Z,24.03
2022-10-18T19:14:19.806Z,22.23
2022-10-18T19:16:51.553Z,22.40
2022-10-18T19:19:20.616Z,21.73
2022-10-18T19:21:49.554Z,22.30
2022-10-18T19:24:15.989Z,22.57
2022-10-18T19:26:48.595Z,21.87
2022-10-18T19:29:18.863Z,23.77
2022-10-18T19:31:45.710Z,22.50
2022-10-18T19:34:14.220Z,22.40
2022-10-18T19:36:43.152Z,23.57
2022-10-18T19:39:14.730Z,21.30
2022-10-18T19:41:41.157Z,22.47
2022-10-18T19:44:07.591Z,22.30
2022-10-18T19:46:33.977Z,21.50
2022-10-18T19:49:00.371Z,22.27
2022-10-18T19:51:28.326Z,20.17
2022-10-18T19:53:56.699Z,21.97
2022-10-18T19:56:25.443Z,22.23
2022-10-18T19:58:51.984Z,20.80
2022-10-18T20:01:19.097Z,21.00
2022-10-18T20:03:46.432Z,19.50
2022-10-18T20:06:13.093Z,19.57
2022-10-18T20:08:39.737Z,19.53
2022-10-18T20:11:11.743Z,19.97
2022-10-18T20:13:38.309Z,19.80
2022-10-18T20:16:07.701Z,18.30
2022-10-18T20:18:34.815Z,18.93
2022-10-18T20:21:05.915Z,19.73
2022-10-18T20:23:32.639Z,18.53
2022-10-18T20:26:04.569Z,19.53
2022-10-18T20:28:31.207Z,20.67
2022-10-18T20:31:07.979Z,18.67
2022-10-18T20:33:35.639Z,18.90
2022-10-18T20:36:08.522Z,18.83
2022-10-18T20:38:37.250Z,17.97
2022-10-18T20:41:27.504Z,16.97
2022-10-18T20:43:57.668Z,16.87
2022-10-18T20:46:25.066Z,17.83
2022-10-18T20:48:52.349Z,17.90
2022-10-18T20:51:18.876Z,16.80
2022-10-18T20:53:45.651Z,18.10
2022-10-18T20:56:20.646Z,17.43
2022-10-18T20:58:49.467Z,18.67
2022-10-18T21:01:27.279Z,16.00
2022-10-18T21:03:55.501Z,16.17
2022-10-18T21:06:27.394Z,16.33
2022-10-18T21:09:15.587Z,15.33
2022-10-18T21:11:44.853Z,19.07
2022-10-18T21:14:13.822Z,16.83
2022-10-18T21:16:40.377Z,18.27
2022-10-18T21:19:17.223Z,17.37
2022-10-18T21:21:46.010Z,15.47
2022-10-18T21:24:13.982Z,16.50
2022-10-18T21:26:40.461Z,15.53
2022-10-18T21:29:07.433Z,15.67
2022-10-18T21:31:36.233Z,16.70
2022-10-18T21:34:15.330Z,15.63
2022-10-18T21:36:43.936Z,15.97
2022-10-18T21:39:16.084Z,17.30
2022-10-18T21:41:42.944Z,17.00
2022-10-18T21:44:11.152Z,16.80
2022-10-18T21:46:39.366Z,16.10
2022-10-18T21:49:06.830Z,16.67
2022-10-18T21:51:33.244Z,16.30
2022-10-18T21:53:59.731Z,18.90
2022-10-18T21:56:31.489Z,19.53
2022-10-18T21:58:58.513Z,18.07
2022-10-18T22:01:27.903Z,17.30
2022-10-18T22:03:56.163Z,16.23
2022-10-18T22:06:23.104Z,15.27
2022-10-18T22:08:52.114Z,16.10
2022-10-18T22:11:20.704Z,15.07
2022-10-18T22:13:47.247Z,14.63
2022-10-18T22:16:15.341Z,15.97
2022-10-18T22:18:43.230Z,15.70
2022-10-18T22:21:11.597Z,16.07
2022-10-18T22:23:41.770Z,16.23
2022-10-18T22:26:15.245Z,16.40
2022-10-18T22:28:43.608Z,17.87
2022-10-18T22:31:17.907Z,22.80
2022-10-18T22:33:44.937Z,24.63
2022-10-18T22:36:12.093Z,21.80
2022-10-18T22:38:39.049Z,21.00
2022-10-18T22:41:06.934Z,20.70
2022-10-18T22:43:33.855Z,22.10
2022-10-18T22:46:02.431Z,23.00
2022-10-18T22:48:29.393Z,22.20
2022-10-18T22:50:55.824Z,25.40
2022-10-18T22:53:22.392Z,25.77
2022-10-18T22:55:49.528Z,25.67
2022-10-18T22:58:16.008Z,24.57
2022-10-18T23:00:42.404Z,24.57
2022-10-18T23:03:08.966Z,24.50
2022-10-18T23:05:39.784Z,25.20
2022-10-18T23:08:07.724Z,24.73
2022-10-18T23:10:36.640Z,24.67
2022-10-18T23:13:03.729Z,22.00
2022-10-18T23:15:30.839Z,23.87
2022-10-18T23:17:58.500Z,23.47
2022-10-18T23:20:26.292Z,23.83
2022-10-18T23:22:53.083Z,23.07
2022-10-18T23:25:20.226Z,23.70
2022-10-18T23:27:46.740Z,24.07
2022-10-18T23:30:13.297Z,23.13
2022-10-18T23:32:39.711Z,24.47
2022-10-18T23:35:07.272Z,24.33
2022-10-18T23:37:33.927Z,23.37
2022-10-18T23:40:00.568Z,25.30
2022-10-18T23:42:27.006Z,22.60
2022-10-18T23:44:53.444Z,22.00
2022-10-18T23:47:19.797Z,23.87
2022-10-18T23:49:46.219Z,24.47
2022-10-18T23:52:12.661Z,24.03
2022-10-18T23:54:39.108Z,23.67
2022-10-18T23:57:05.620Z,24.77
2022-10-18T23:59:32.060Z,24.10
